Time;durP1;ratioP1;P1;durP2;ratioP2;P2;SDS_P1;SDS_P2;PMS_P1;PMS_P2;Temp;Humidity;BMP_temperature;BMP_pressure;BME280_temperature;BME280_humidity;BME280_pressure;Samples;Min_cycle;Max_cycle;Signal;HPM_P1;HPM_P2
2022/09/05 00:01:42;;;;;;;12.30;5.85;;;22.30;59.70;;;;;;5006907;28;20058;-72
2022/09/05 00:04:25;;;;;;;12.25;5.75;;;22.30;59.60;;;;;;4976781;28;20511;-72
2022/09/05 00:07:03;;;;;;;14.48;5.53;;;22.30;59.80;;;;;;4989677;28;20034;-73
2022/09/05 00:09:55;;;;;;;11.75;5.45;;;22.30;59.80;;;;;;4974165;28;20390;-73
2022/09/05 00:12:21;;;;;;;10.38;5.32;;;22.30;59.80;;;;;;4990392;28;20037;-73
2022/09/05 00:15:05;;;;;;;12.95;5.68;;;22.30;59.80;;;;;;5007263;28;20022;-73
2022/09/05 00:17:48;;;;;;;11.32;5.45;;;22.30;59.90;;;;;;4989400;28;20035;-72
2022/09/05 00:20:53;;;;;;;10.82;5.47;;;22.30;59.80;;;;;;4983959;28;20031;-72
2022/09/05 00:23:58;;;;;;;12.23;5.72;;;22.30;59.80;;;;;;4968986;28;20039;-72
2022/09/05 00:26:47;;;;;;;13.05;5.63;;;22.30;59.80;;;;;;4962437;28;20035;-71
2022/09/05 00:29:21;;;;;;;13.25;5.75;;;22.30;59.80;;;;;;4983767;28;20045;-72
2022/09/05 00:31:53;;;;;;;17.50;6.38;;;22.30;59.60;;;;;;4989129;28;20030;-72
2022/09/05 00:34:52;;;;;;;14.93;6.53;;;22.30;59.80;;;;;;4990465;28;20042;-72
2022/09/05 00:37:38;;;;;;;22.60;6.40;;;22.30;59.60;;;;;;4991826;28;20494;-72
2022/09/05 00:40:34;;;;;;;14.45;5.47;;;22.30;59.60;;;;;;4989979;28;20072;-72
2022/09/05 00:43:18;;;;;;;14.48;6.15;;;22.30;59.60;;;;;;4991203;28;20050;-72
2022/09/05 00:45:53;;;;;;;17.23;6.50;;;22.30;59.70;;;;;;4991378;28;20479;-72
2022/09/05 00:48:33;;;;;;;17.65;5.97;;;22.30;59.80;;;;;;5007080;28;20081;-72
2022/09/05 00:51:16;;;;;;;15.48;6.00;;;22.30;59.80;;;;;;4991614;28;20073;-72
2022/09/05 00:53:50;;;;;;;10.85;5.55;;;22.30;59.60;;;;;;4990703;28;20387;-72
2022/09/05 00:56:26;;;;;;;14.07;5.65;;;22.30;59.80;;;;;;4990246;28;20030;-72
2022/09/05 00:59:09;;;;;;;12.07;5.97;;;22.30;59.80;;;;;;4990192;28;20030;-72
2022/09/05 01:02:03;;;;;;;11.48;5.70;;;22.30;59.60;;;;;;4990695;28;20026;-72
2022/09/05 01:04:46;;;;;;;15.13;5.63;;;22.30;59.90;;;;;;4991348;28;20390;-72
2022/09/05 01:07:33;;;;;;;9.05;5.40;;;22.30;59.90;;;;;;4991384;28;20050;-72
2022/09/05 01:10:19;;;;;;;11.38;4.75;;;22.30;59.70;;;;;;4991517;28;20023;-72
2022/09/05 01:12:57;;;;;;;12.68;5.47;;;22.30;59.90;;;;;;4979331;28;20441;-72
2022/09/05 01:15:35;;;;;;;16.48;5.90;;;22.30;59.90;;;;;;4993978;28;20431;-72
2022/09/05 01:18:37;;;;;;;10.57;5.25;;;22.30;60.00;;;;;;4977032;28;20034;-72
2022/09/05 01:21:28;;;;;;;13.50;5.95;;;22.30;60.00;;;;;;4994471;28;20029;-73
2022/09/05 01:24:14;;;;;;;11.15;5.40;;;22.30;60.00;;;;;;4993780;28;20487;-73
2022/09/05 01:27:16;;;;;;;12.10;5.07;;;22.30;60.20;;;;;;4992980;28;20054;-72
2022/09/05 01:29:57;;;;;;;9.48;5.25;;;22.30;60.00;;;;;;4981261;28;20030;-73
2022/09/05 01:32:41;;;;;;;12.27;5.35;;;22.30;60.10;;;;;;4992179;28;20085;-73
2022/09/05 01:35:35;;;;;;;10.15;4.90;;;22.20;59.70;;;;;;4975507;28;20035;-72
2022/09/05 01:38:11;;;;;;;14.50;6.07;;;22.20;59.80;;;;;;4992726;28;20041;-72
2022/09/05 01:40:45;;;;;;;10.75;5.15;;;22.20;59.60;;;;;;4992709;28;20490;-72
2022/09/05 01:43:29;;;;;;;9.93;5.10;;;22.30;60.20;;;;;;5004895;23;20045;-72
2022/09/05 01:46:23;;;;;;;10.93;5.07;;;22.20;59.90;;;;;;4992836;28;20024;-72
2022/09/05 01:49:07;;;;;;;11.70;5.65;;;22.20;60.00;;;;;;4992404;28;20018;-73
2022/09/05 01:52:00;;;;;;;10.05;5.13;;;22.20;59.80;;;;;;4985740;28;20026;-73
2022/09/05 01:54:49;;;;;;;11.32;5.07;;;22.20;60.00;;;;;;5006685;28;20037;-72
2022/09/05 01:57:28;;;;;;;9.48;4.80;;;22.20;59.80;;;;;;4995914;28;20031;-73
2022/09/05 02:00:02;;;;;;;10.48;4.80;;;22.20;60.10;;;;;;4995260;28;20030;-72
2022/09/05 02:03:00;;;;;;;11.07;5.45;;;22.20;59.80;;;;;;4995515;28;20034;-72
2022/09/05 02:06:00;;;;;;;8.07;4.50;;;22.20;59.70;;;;;;5005657;28;20387;-72
2022/09/05 02:08:38;;;;;;;12.48;5.47;;;22.20;59.80;;;;;;5009655;28;20022;-72
2022/09/05 02:11:07;;;;;;;11.50;5.13;;;22.20;59.80;;;;;;4994403;28;20037;-72
2022/09/05 02:13:32;;;;;;;11.13;4.87;;;22.20;59.80;;;;;;5009353;28;20152;-73
2022/09/05 02:16:20;;;;;;;10.38;4.85;;;22.20;60.20;;;;;;4994240;28;20109;-72
2022/09/05 02:19:07;;;;;;;8.85;5.00;;;22.20;59.70;;;;;;5000274;28;20022;-72
2022/09/05 02:21:35;;;;;;;11.60;5.28;;;22.20;60.10;;;;;;5011858;28;20084;-72
2022/09/05 02:24:19;;;;;;;9.90;4.97;;;22.20;59.60;;;;;;5013331;28;20034;-72
2022/09/05 02:27:35;;;;;;;9.02;5.05;;;22.20;60.30;;;;;;5013621;28;20048;-72
2022/09/05 02:30:13;;;;;;;9.02;4.65;;;22.20;60.30;;;;;;5001102;28;20104;-73
2022/09/05 02:32:54;;;;;;;12.07;4.90;;;22.30;60.40;;;;;;5013683;28;20466;-72
2022/09/05 02:35:59;;;;;;;9.93;5.15;;;22.20;60.20;;;;;;5013378;28;20033;-72
2022/09/05 02:38:53;;;;;;;11.02;5.20;;;22.20;60.40;;;;;;5013407;28;20033;-72
2022/09/05 02:41:40;;;;;;;9.68;5.40;;;22.30;60.30;;;;;;5013299;28;20375;-72
2022/09/05 02:44:28;;;;;;;11.98;4.90;;;22.30;60.30;;;;;;5012950;28;20034;-72
2022/09/05 02:47:32;;;;;;;12.85;4.70;;;22.30;60.40;;;;;;5013268;28;20096;-72
2022/09/05 02:50:49;;;;;;;11.63;5.05;;;22.30;60.30;;;;;;4952003;29;20113;-72
2022/09/05 02:53:18;;;;;;;10.50;4.75;;;22.30;60.40;;;;;;4999818;28;20030;-72
2022/09/05 02:55:44;;;;;;;11.43;4.63;;;22.30;60.50;;;;;;5013002;28;20045;-72
2022/09/05 02:58:40;;;;;;;11.18;4.50;;;22.30;60.40;;;;;;5013018;28;20398;-72
2022/09/05 03:01:46;;;;;;;10.50;5.18;;;22.30;60.30;;;;;;5013024;28;20113;-72
2022/09/05 03:04:33;;;;;;;12.02;4.93;;;22.30;60.40;;;;;;5012535;28;20022;-73
2022/09/05 03:07:40;;;;;;;9.85;4.50;;;22.20;60.30;;;;;;5011762;28;20440;-72
2022/09/05 03:10:48;;;;;;;10.05;5.15;;;22.20;60.40;;;;;;5004273;28;20030;-73
2022/09/05 03:13:32;;;;;;;8.45;4.68;;;22.20;60.20;;;;;;5006561;28;20115;-73
2022/09/05 03:16:29;;;;;;;10.00;4.82;;;22.20;60.10;;;;;;5012583;28;20026;-73
2022/09/05 03:19:16;;;;;;;11.65;4.95;;;22.20;60.00;;;;;;5010968;28;20029;-73
2022/09/05 03:21:48;;;;;;;8.55;4.60;;;22.20;60.10;;;;;;5006449;28;20030;-71
2022/09/05 03:24:41;;;;;;;8.23;4.57;;;22.20;60.30;;;;;;5012455;28;20097;-72
2022/09/05 03:27:43;;;;;;;11.25;4.65;;;22.20;60.40;;;;;;5012211;28;20018;-71
2022/09/05 03:30:20;;;;;;;7.15;4.70;;;22.20;60.40;;;;;;5012584;28;20147;-71
2022/09/05 03:33:07;;;;;;;6.88;4.28;;;22.20;60.00;;;;;;5012069;28;20029;-71
2022/09/05 03:35:34;;;;;;;11.68;4.55;;;22.20;60.20;;;;;;5005009;28;20505;-71
2022/09/05 03:37:59;;;;;;;7.15;4.38;;;22.20;60.20;;;;;;5012329;28;20085;-71
2022/09/05 03:40:52;;;;;;;11.85;4.88;;;22.20;60.40;;;;;;5011865;28;20037;-72
2022/09/05 03:43:40;;;;;;;7.20;4.40;;;22.20;59.80;;;;;;5003542;28;20406;-71
2022/09/05 03:46:14;;;;;;;7.63;4.55;;;22.20;60.20;;;;;;5012160;28;20434;-72
2022/09/05 03:48:54;;;;;;;10.07;4.22;;;22.20;59.80;;;;;;5010812;28;20030;-71
2022/09/05 03:51:23;;;;;;;9.45;4.65;;;22.20;59.70;;;;;;5010840;28;20387;-71
2022/09/05 03:53:58;;;;;;;10.30;4.43;;;22.20;60.00;;;;;;5012093;28;20036;-71
2022/09/05 03:56:27;;;;;;;12.88;4.55;;;22.20;60.50;;;;;;5011924;28;20034;-71
2022/09/05 03:59:10;;;;;;;10.38;4.88;;;22.20;60.00;;;;;;5011965;28;20033;-71
2022/09/05 04:01:50;;;;;;;7.47;4.60;;;22.20;60.30;;;;;;5012177;28;20030;-71
2022/09/05 04:04:43;;;;;;;15.32;5.07;;;22.20;60.10;;;;;;5011944;28;20025;-71
2022/09/05 04:07:44;;;;;;;10.77;4.40;;;22.20;59.80;;;;;;5011945;28;20367;-71
2022/09/05 04:10:31;;;;;;;9.60;4.30;;;22.20;60.40;;;;;;5008728;28;20038;-71
2022/09/05 04:13:13;;;;;;;7.50;4.43;;;22.20;59.80;;;;;;5000023;28;20053;-71
2022/09/05 04:15:44;;;;;;;14.07;4.65;;;22.20;59.80;;;;;;4991235;28;20489;-71
2022/09/05 04:18:18;;;;;;;10.63;4.60;;;22.20;60.60;;;;;;4992168;28;20770;-72
2022/09/05 04:20:57;;;;;;;9.77;4.55;;;22.20;60.40;;;;;;4992215;28;20040;-71
2022/09/05 04:23:41;;;;;;;11.38;4.88;;;22.20;60.30;;;;;;4992167;28;20041;-72
2022/09/05 04:26:25;;;;;;;13.00;4.90;;;22.20;60.60;;;;;;4990949;28;20049;-71
2022/09/05 04:29:06;;;;;;;9.80;4.68;;;22.20;60.60;;;;;;4991955;28;20229;-71
2022/09/05 04:32:07;;;;;;;9.88;4.63;;;22.20;60.60;;;;;;4992138;28;20026;-71
2022/09/05 04:35:13;;;;;;;22.48;4.78;;;22.20;60.40;;;;;;4996485;28;20042;-71
2022/09/05 04:37:45;;;;;;;10.32;5.05;;;22.20;60.30;;;;;;4992044;28;20057;-71
2022/09/05 04:40:39;;;;;;;9.27;4.93;;;22.20;60.60;;;;;;4990609;28;20031;-71
2022/09/05 04:43:39;;;;;;;9.07;5.00;;;22.20;60.20;;;;;;4991747;28;20042;-72
2022/09/05 04:46:08;;;;;;;;;;;22.20;60.80;;;;;;4943711;28;20133;-71
2022/09/05 04:49:08;;;;;;;8.20;4.32;;;22.30;60.00;;;;;;4995458;28;19914;-71
2022/09/05 04:52:10;;;;;;;8.70;5.15;;;22.20;60.00;;;;;;4962878;28;20077;-71
2022/09/05 04:54:55;;;;;;;8.63;4.30;;;22.20;59.60;;;;;;4995692;28;20403;-71
2022/09/05 04:57:37;;;;;;;9.40;4.53;;;22.20;60.20;;;;;;4995686;28;20058;-71
2022/09/05 05:00:12;;;;;;;8.85;4.68;;;22.20;59.80;;;;;;4995695;28;20034;-71
2022/09/05 05:02:45;;;;;;;9.90;4.38;;;22.20;59.90;;;;;;4964727;28;20058;-71
2022/09/05 05:05:25;;;;;;;10.13;4.78;;;22.20;60.10;;;;;;5003884;28;20367;-71
2022/09/05 05:08:00;;;;;;;10.73;4.97;;;22.20;59.90;;;;;;5008287;28;20019;-71
2022/09/05 05:10:58;;;;;;;7.75;4.20;;;22.20;60.60;;;;;;5003819;28;20109;-71
2022/09/05 05:13:30;;;;;;;10.38;4.57;;;22.20;60.60;;;;;;5001788;28;20117;-71
2022/09/05 05:16:04;;;;;;;7.00;4.50;;;22.20;59.80;;;;;;5000563;28;20026;-71
2022/09/05 05:18:47;;;;;;;12.88;4.78;;;22.20;59.80;;;;;;5002426;28;20121;-71
2022/09/05 05:21:19;;;;;;;14.10;4.20;;;22.20;61.60;;;;;;4995581;28;20026;-71
2022/09/05 05:24:06;;;;;;;15.30;4.72;;;22.20;61.00;;;;;;4994811;28;20036;-72
2022/09/05 05:26:39;;;;;;;10.50;4.68;;;22.20;61.00;;;;;;4993922;28;20366;-71
2022/09/05 05:29:28;;;;;;;20.60;5.18;;;22.20;61.10;;;;;;5012693;28;20022;-70
2022/09/05 05:31:58;;;;;;;12.77;5.67;;;22.20;61.40;;;;;;5007769;28;20064;-72
2022/09/05 05:34:45;;;;;;;14.35;5.00;;;22.20;61.50;;;;;;4994611;28;20136;-71
2022/09/05 05:37:20;;;;;;;14.48;5.15;;;22.20;61.10;;;;;;4996359;28;20041;-71
2022/09/05 05:40:02;;;;;;;16.58;5.32;;;22.20;61.20;;;;;;5004075;28;20029;-73
2022/09/05 05:42:28;;;;;;;15.70;5.22;;;22.20;61.50;;;;;;4994734;28;20033;-72
2022/09/05 05:44:57;;;;;;;22.10;5.25;;;22.20;61.70;;;;;;5003219;28;20026;-72
2022/09/05 05:47:40;;;;;;;22.63;5.00;;;22.20;61.50;;;;;;4994580;28;20026;-73
2022/09/05 05:50:32;;;;;;;20.80;4.40;;;22.10;59.80;;;;;;4995561;28;20410;-73
2022/09/05 05:53:19;;;;;;;12.77;3.95;;;22.00;56.90;;;;;;4995595;28;20023;-72
2022/09/05 05:56:16;;;;;;;8.15;3.50;;;21.80;54.70;;;;;;4996871;28;20022;-72
2022/09/05 05:58:54;;;;;;;13.65;4.20;;;21.80;54.70;;;;;;4998109;28;20100;-72
2022/09/05 06:01:35;;;;;;;10.27;3.90;;;21.80;54.90;;;;;;4994198;28;20080;-72
2022/09/05 06:04:16;;;;;;;21.73;4.60;;;21.90;55.70;;;;;;5005457;28;20069;-72
2022/09/05 06:07:08;;;;;;;13.70;4.00;;;22.00;57.00;;;;;;5012515;28;20098;-71
2022/09/05 06:09:46;;;;;;;13.02;4.32;;;22.00;57.50;;;;;;5013576;28;20026;-72
2022/09/05 06:12:31;;;;;;;17.70;5.15;;;22.10;58.10;;;;;;5015020;28;20408;-72
2022/09/05 06:15:25;;;;;;;16.52;4.65;;;22.10;58.00;;;;;;5013720;28;20111;-72
2022/09/05 06:18:09;;;;;;;13.52;4.57;;;22.10;57.80;;;;;;5013684;28;20034;-72
2022/09/05 06:20:35;;;;;;;13.68;4.38;;;22.10;57.40;;;;;;5013342;28;20038;-71
2022/09/05 06:23:31;;;;;;;14.25;3.70;;;22.20;57.40;;;;;;5013633;28;20820;-72
2022/09/05 06:26:19;;;;;;;11.30;4.28;;;22.20;57.60;;;;;;5013732;28;20025;-72
2022/09/05 06:28:52;;;;;;;12.07;4.60;;;22.20;57.70;;;;;;5013525;28;20018;-72
2022/09/05 06:31:40;;;;;;;10.85;3.97;;;22.20;57.40;;;;;;5013767;28;20022;-71
2022/09/05 06:34:28;;;;;;;11.70;3.97;;;22.20;57.70;;;;;;5013387;28;20030;-71
2022/09/05 06:36:58;;;;;;;11.57;4.05;;;22.20;58.10;;;;;;5013296;28;20072;-71
2022/09/05 06:40:00;;;;;;;10.38;4.07;;;22.20;57.60;;;;;;5013045;28;20486;-71
2022/09/05 06:42:54;;;;;;;12.15;3.83;;;22.10;57.70;;;;;;5012990;28;20034;-71
2022/09/05 06:46:01;;;;;;;11.70;3.78;;;22.20;58.10;;;;;;4993764;28;20115;-71
2022/09/05 06:48:54;;;;;;;14.10;4.00;;;22.10;57.90;;;;;;5013164;28;20101;-71
2022/09/05 06:51:40;;;;;;;13.20;4.47;;;22.20;58.10;;;;;;5013153;28;20030;-71
2022/09/05 06:54:18;;;;;;;8.27;3.70;;;22.10;58.10;;;;;;5013000;28;20101;-71
2022/09/05 06:56:59;;;;;;;10.32;3.90;;;22.10;58.10;;;;;;5013143;28;20037;-71
2022/09/05 06:59:29;;;;;;;8.93;4.15;;;22.10;58.20;;;;;;5011376;28;20037;-71
2022/09/05 07:02:14;;;;;;;9.35;4.30;;;22.10;58.40;;;;;;5013063;28;20161;-71
2022/09/05 07:04:59;;;;;;;10.52;3.67;;;22.10;58.30;;;;;;5012883;28;20037;-70
2022/09/05 07:07:43;;;;;;;10.70;4.45;;;22.20;59.10;;;;;;5012437;28;20048;-70
2022/09/05 07:10:24;;;;;;;8.88;3.95;;;22.20;58.40;;;;;;5012354;28;20434;-71
2022/09/05 07:13:14;;;;;;;10.57;3.90;;;22.10;58.60;;;;;;5012777;28;20034;-70
2022/09/05 07:15:48;;;;;;;12.88;3.80;;;22.20;58.70;;;;;;5012643;28;20092;-71
2022/09/05 07:18:39;;;;;;;12.73;4.03;;;22.20;58.70;;;;;;5011647;28;20105;-70
2022/09/05 07:21:34;;;;;;;7.22;3.80;;;22.20;59.20;;;;;;5012815;28;20032;-70
2022/09/05 07:24:08;;;;;;;13.25;4.00;;;22.20;59.20;;;;;;5012479;28;20392;-71
2022/09/05 07:26:37;;;;;;;8.55;3.70;;;22.20;59.50;;;;;;5011359;28;20034;-71
2022/09/05 07:29:05;;;;;;;11.50;4.20;;;22.20;59.30;;;;;;5012171;28;20125;-71
2022/09/05 07:31:34;;;;;;;6.85;3.72;;;22.20;59.30;;;;;;5012696;28;20076;-71
2022/09/05 07:34:26;;;;;;;8.75;3.60;;;22.20;59.60;;;;;;5012300;28;20450;-71
2022/09/05 07:36:55;;;;;;;7.28;4.03;;;22.30;59.70;;;;;;5012338;28;20113;-71
2022/09/05 07:39:33;;;;;;;8.40;3.85;;;22.20;59.80;;;;;;5011930;28;20530;-71
2022/09/05 07:42:05;;;;;;;7.10;3.28;;;22.20;59.70;;;;;;5012717;28;20092;-70
2022/09/05 07:44:35;;;;;;;11.23;4.13;;;22.30;59.40;;;;;;5005943;23;20078;-76
2022/09/05 07:47:07;;;;;;;18.38;3.88;;;22.30;59.10;;;;;;4972862;28;20037;-76
2022/09/05 07:49:36;;;;;;;10.65;3.60;;;22.20;59.80;;;;;;4972755;28;20027;-76
2022/09/05 07:52:18;;;;;;;11.50;4.10;;;22.30;60.00;;;;;;4972009;28;20117;-76
2022/09/05 07:54:45;;;;;;;8.43;3.88;;;22.30;59.90;;;;;;4971928;28;20517;-76
2022/09/05 07:57:22;;;;;;;8.52;3.60;;;22.20;59.90;;;;;;4973239;28;20065;-75
2022/09/05 07:59:53;;;;;;;10.43;3.65;;;22.30;60.50;;;;;;4972827;28;20027;-74
2022/09/05 08:02:19;;;;;;;8.52;3.53;;;22.30;59.70;;;;;;4972044;28;20278;-74
2022/09/05 08:04:45;;;;;;;9.73;3.97;;;22.30;59.70;;;;;;4972967;28;20114;-74
2022/09/05 08:07:27;;;;;;;10.00;3.47;;;22.30;60.00;;;;;;4939926;28;20118;-75
2022/09/05 08:09:59;;;;;;;10.75;3.75;;;22.30;60.00;;;;;;4971874;28;20121;-75
2022/09/05 08:12:31;;;;;;;9.85;4.00;;;22.30;60.10;;;;;;4973255;28;20452;-74
2022/09/05 08:15:17;;;;;;;9.35;3.65;;;22.30;60.00;;;;;;4973060;28;20051;-74
2022/09/05 08:18:06;;;;;;;13.18;4.00;;;22.30;60.00;;;;;;4972880;28;20027;-74
2022/09/05 08:21:05;;;;;;;12.52;4.22;;;22.30;60.10;;;;;;4966650;28;20130;-76
2022/09/05 08:23:49;;;;;;;8.90;3.60;;;22.30;60.20;;;;;;4976735;28;20086;-76
2022/09/05 08:26:37;;;;;;;12.02;3.63;;;22.30;60.10;;;;;;4975528;28;20039;-75
2022/09/05 08:29:23;;;;;;;11.23;3.55;;;22.40;60.20;;;;;;4976469;28;20059;-75
2022/09/05 08:32:10;;;;;;;11.77;3.83;;;22.40;60.40;;;;;;4975436;28;20023;-75
2022/09/05 08:34:50;;;;;;;9.55;3.80;;;22.40;60.40;;;;;;4976591;28;20026;-75
2022/09/05 08:37:20;;;;;;;;;;;22.40;60.40;;;;;;4959931;28;20058;-75
2022/09/05 08:39:56;;;;;;;9.68;3.70;;;22.40;60.40;;;;;;4975491;28;19969;-76
2022/09/05 08:42:33;;;;;;;9.80;4.22;;;22.40;60.30;;;;;;4976931;28;20046;-75
2022/09/05 08:45:37;;;;;;;11.48;4.07;;;22.40;60.30;;;;;;4976277;28;20066;-75
2022/09/05 08:48:23;;;;;;;8.63;4.03;;;22.40;60.30;;;;;;4976261;28;20033;-76
2022/09/05 08:51:04;;;;;;;9.27;4.13;;;22.40;60.40;;;;;;4971925;28;20019;-75
2022/09/05 08:53:34;;;;;;;13.77;4.22;;;22.50;61.10;;;;;;4981266;28;20393;-74
2022/09/05 08:56:09;;;;;;;15.60;4.10;;;22.60;60.90;;;;;;4972200;28;20062;-75
2022/09/05 08:58:59;;;;;;;19.08;4.78;;;22.50;61.20;;;;;;4968721;28;20368;-75
2022/09/05 09:01:42;;;;;;;10.85;4.70;;;22.60;61.40;;;;;;4954416;28;20050;-75
2022/09/05 09:04:23;;;;;;;15.20;4.32;;;22.60;61.90;;;;;;4972069;28;20491;-75
2022/09/05 09:07:06;;;;;;;21.08;4.38;;;22.60;61.40;;;;;;4973895;28;20442;-75
2022/09/05 09:10:07;;;;;;;9.05;3.78;;;22.60;62.10;;;;;;4987904;28;20027;-75
2022/09/05 09:12:47;;;;;;;14.07;4.72;;;22.60;61.60;;;;;;4973709;28;20027;-73
2022/09/05 09:15:18;;;;;;;;;;;22.60;60.20;;;;;;4972271;28;20047;-73
2022/09/05 09:17:48;;;;;;;16.42;9.75;;;22.60;59.70;;;;;;4971814;28;19976;-73
2022/09/05 09:20:29;;;;;;;17.08;8.30;;;22.60;58.60;;;;;;4973564;28;20450;-73
2022/09/05 09:23:01;;;;;;;20.05;11.25;;;22.50;58.80;;;;;;4973228;28;20467;-73
2022/09/05 09:25:38;;;;;;;15.82;8.13;;;22.50;57.20;;;;;;4973339;28;20483;-73
2022/09/05 09:28:39;;;;;;;13.80;6.75;;;22.50;57.00;;;;;;4972505;28;20495;-73
2022/09/05 09:31:29;;;;;;;17.20;6.78;;;22.50;57.20;;;;;;4952218;28;20102;-72
2022/09/05 09:34:13;;;;;;;13.48;5.78;;;22.50;57.10;;;;;;4955114;29;20097;-74
2022/09/05 09:37:04;;;;;;;12.15;5.95;;;22.50;57.00;;;;;;4956347;28;20036;-72
2022/09/05 09:39:46;;;;;;;15.88;5.63;;;22.60;56.40;;;;;;4955850;29;20077;-72
2022/09/05 09:42:38;;;;;;;19.63;7.20;;;22.60;56.90;;;;;;4956023;29;20042;-73
2022/09/05 09:45:23;;;;;;;20.27;7.38;;;22.60;57.30;;;;;;4910023;29;20448;-72
2022/09/05 09:48:14;;;;;;;15.70;6.97;;;22.60;58.00;;;;;;4961554;28;20034;-72
2022/09/05 09:50:59;;;;;;;32.65;14.07;;;22.70;57.60;;;;;;4974742;28;20035;-72
2022/09/05 09:54:07;;;;;;;25.33;9.32;;;22.70;58.60;;;;;;4975294;28;20027;-72
2022/09/05 09:56:58;;;;;;;18.50;7.18;;;22.80;57.60;;;;;;4978853;28;20097;-72
2022/09/05 09:59:28;;;;;;;19.27;6.90;;;22.80;57.40;;;;;;4971334;28;20475;-72
2022/09/05 10:02:23;;;;;;;22.15;7.72;;;22.80;57.50;;;;;;4978055;28;20080;-72
2022/09/05 10:04:54;;;;;;;20.02;7.75;;;22.80;57.80;;;;;;4989834;28;20027;-72
2022/09/05 10:08:03;;;;;;;21.45;8.18;;;22.80;57.80;;;;;;4985874;28;20379;-73
2022/09/05 10:10:56;;;;;;;19.20;6.90;;;22.90;57.40;;;;;;4955289;28;20042;-72
2022/09/05 10:13:25;;;;;;;29.10;9.63;;;22.90;57.30;;;;;;4961183;28;20391;-72
2022/09/05 10:16:09;;;;;;;27.02;9.90;;;22.90;57.50;;;;;;4975350;28;20030;-72
2022/09/05 10:18:49;;;;;;;23.88;9.00;;;22.90;57.50;;;;;;4963078;28;20046;-73
2022/09/05 10:21:42;;;;;;;20.25;7.43;;;22.90;56.90;;;;;;4974842;28;20480;-73
2022/09/05 10:24:36;;;;;;;24.55;7.82;;;22.90;56.50;;;;;;4974662;28;20062;-73
2022/09/05 10:27:19;;;;;;;14.77;6.07;;;22.90;56.50;;;;;;4974641;28;20086;-73
2022/09/05 10:30:14;;;;;;;18.42;6.68;;;22.90;55.90;;;;;;4974345;28;20037;-72
2022/09/05 10:33:15;;;;;;;15.23;5.80;;;22.90;55.70;;;;;;4974485;28;20027;-73
2022/09/05 10:35:50;;;;;;;12.10;5.47;;;22.90;55.30;;;;;;4972483;28;20483;-72
2022/09/05 10:38:44;;;;;;;18.15;6.63;;;22.90;55.40;;;;;;4974396;28;20059;-73
2022/09/05 10:41:14;;;;;;;13.63;5.82;;;22.80;55.70;;;;;;4972958;28;20082;-73
2022/09/05 10:44:01;;;;;;;13.02;5.43;;;22.80;55.70;;;;;;4971920;28;20034;-73
2022/09/05 10:46:56;;;;;;;12.70;5.70;;;22.80;55.10;;;;;;4973191;28;20039;-73
2022/09/05 10:49:29;;;;;;;12.27;4.70;;;22.80;55.30;;;;;;4981936;28;20026;-73
2022/09/05 10:52:01;;;;;;;15.02;6.22;;;22.80;55.60;;;;;;4972904;28;20019;-73
2022/09/05 10:54:32;;;;;;;14.65;5.78;;;22.80;55.80;;;;;;4971591;28;20022;-73
2022/09/05 10:57:40;;;;;;;16.48;5.85;;;22.80;55.80;;;;;;4964507;28;20033;-72
2022/09/05 11:00:37;;;;;;;15.80;7.32;;;22.80;55.80;;;;;;4969476;28;20110;-73
2022/09/05 11:03:05;;;;;;;18.30;9.48;;;22.80;56.20;;;;;;4969626;28;20031;-73
2022/09/05 11:05:38;;;;;;;16.98;8.73;;;22.80;55.60;;;;;;4972987;28;20042;-73
2022/09/05 11:08:35;;;;;;;17.23;7.30;;;22.80;55.20;;;;;;4968304;28;20037;-73
2022/09/05 11:11:23;;;;;;;14.40;5.95;;;22.90;54.90;;;;;;4970016;28;20026;-72
2022/09/05 11:13:51;;;;;;;16.55;5.72;;;22.90;54.70;;;;;;4952525;28;20039;-73
2022/09/05 11:16:36;;;;;;;13.10;5.78;;;22.90;54.60;;;;;;4964271;28;20042;-73
2022/09/05 11:19:04;;;;;;;13.93;5.20;;;22.90;54.40;;;;;;4968779;28;20118;-73
2022/09/05 11:21:48;;;;;;;16.08;5.90;;;22.90;54.30;;;;;;4965754;28;20099;-76
2022/09/05 11:24:28;;;;;;;14.15;7.07;;;22.90;54.90;;;;;;4970829;28;20035;-75
2022/09/05 11:27:36;;;;;;;11.15;5.93;;;22.90;55.80;;;;;;4968995;28;20049;-75
2022/09/05 11:30:20;;;;;;;13.63;6.60;;;22.90;57.30;;;;;;4969906;28;20030;-75
2022/09/05 11:33:04;;;;;;;13.55;5.97;;;22.80;56.90;;;;;;4970669;28;20023;-75
2022/09/05 11:35:41;;;;;;;14.10;5.72;;;22.90;57.80;;;;;;4971951;28;20030;-76
2022/09/05 11:38:09;;;;;;;13.05;5.80;;;22.80;57.50;;;;;;4973418;28;20428;-75
2022/09/05 11:40:44;;;;;;;12.00;6.20;;;22.80;57.30;;;;;;4973226;28;20038;-75
2022/09/05 11:43:50;;;;;;;13.38;6.05;;;22.80;57.20;;;;;;4972437;28;20031;-75
2022/09/05 11:46:51;;;;;;;11.77;5.88;;;22.80;57.60;;;;;;4972363;28;20042;-75
2022/09/05 11:49:47;;;;;;;14.63;5.90;;;22.80;57.50;;;;;;4920169;28;20044;-75
2022/09/05 11:52:50;;;;;;;12.63;5.28;;;22.80;57.60;;;;;;4973269;28;20538;-75
2022/09/05 11:56:03;;;;;;;11.65;5.88;;;22.80;58.20;;;;;;4972939;28;20046;-75
2022/09/05 11:58:50;;;;;;;12.02;5.70;;;22.70;57.70;;;;;;4913627;29;20107;-75
2022/09/05 12:02:04;;;;;;;12.68;5.85;;;22.70;57.80;;;;;;4893865;29;20107;-75
2022/09/05 12:04:48;;;;;;;10.88;5.07;;;22.70;57.80;;;;;;4949490;28;20049;-74
2022/09/05 12:07:33;;;;;;;11.07;5.35;;;22.70;57.90;;;;;;4966203;28;20105;-74
2022/09/05 12:10:42;;;;;;;11.10;4.93;;;22.80;56.90;;;;;;4970524;28;20027;-73
2022/09/05 12:13:15;;;;;;;10.43;4.85;;;22.80;56.10;;;;;;4957144;28;20035;-74
2022/09/05 12:15:45;;;;;;;9.77;4.53;;;22.80;56.10;;;;;;4970106;28;20459;-77
2022/09/05 12:18:29;;;;;;;12.23;4.80;;;22.80;56.00;;;;;;4969808;28;20030;-77
2022/09/05 12:21:11;;;;;;;11.15;4.88;;;22.80;55.70;;;;;;4964943;28;20034;-77
2022/09/05 12:23:43;;;;;;;10.18;4.88;;;22.80;55.30;;;;;;4969076;28;20038;-76
2022/09/05 12:26:24;;;;;;;8.98;4.40;;;22.80;55.10;;;;;;4952570;28;20031;-75
2022/09/05 12:29:00;;;;;;;55.55;38.45;;;22.70;54.80;;;;;;4966455;28;20030;-76
2022/09/05 12:32:06;;;;;;;181.93;131.43;;;22.70;55.10;;;;;;4967624;28;20506;-76
2022/09/05 12:34:51;;;;;;;144.57;109.70;;;22.70;54.70;;;;;;4928116;29;20112;-76
2022/09/05 12:37:22;;;;;;;128.88;97.38;;;22.70;54.40;;;;;;4911142;29;20044;-76
2022/09/05 12:39:55;;;;;;;100.32;75.88;;;22.70;54.70;;;;;;4931070;28;20039;-76
2022/09/05 12:42:40;;;;;;;91.28;64.90;;;22.70;54.50;;;;;;4970318;28;20046;-76
2022/09/05 12:45:17;;;;;;;67.45;49.13;;;22.70;54.60;;;;;;4969936;28;20031;-76
2022/09/05 12:48:08;;;;;;;58.95;39.25;;;22.70;54.20;;;;;;4968728;28;20055;-76
2022/09/05 12:50:55;;;;;;;51.72;34.00;;;22.70;54.10;;;;;;4968438;28;20089;-76
2022/09/05 12:53:23;;;;;;;40.92;29.50;;;22.70;54.10;;;;;;4970496;28;20110;-75
2022/09/05 12:56:07;;;;;;;36.67;25.60;;;22.70;54.20;;;;;;4970300;28;20034;-76
2022/09/05 12:58:35;;;;;;;37.25;25.48;;;22.70;54.10;;;;;;4966539;28;20038;-75
2022/09/05 13:01:16;;;;;;;32.33;21.83;;;22.70;54.00;;;;;;4970156;28;20039;-77
2022/09/05 13:04:17;;;;;;;31.58;20.17;;;22.70;54.00;;;;;;4968727;28;20511;-76
2022/09/05 13:07:10;;;;;;;26.45;15.30;;;22.70;53.80;;;;;;4971270;28;20027;-75
2022/09/05 13:09:47;;;;;;;26.00;16.20;;;22.70;53.70;;;;;;4969941;28;20126;-76
2022/09/05 13:12:32;;;;;;;22.52;14.27;;;22.70;53.70;;;;;;4973270;28;20507;-77
2022/09/05 13:15:04;;;;;;;21.73;13.52;;;22.70;53.40;;;;;;4973084;28;20035;-77
2022/09/05 13:17:47;;;;;;;25.67;12.43;;;22.80;53.50;;;;;;4973604;28;20125;-76
2022/09/05 13:20:31;;;;;;;21.63;11.25;;;22.70;53.50;;;;;;4972754;28;20045;-76
2022/09/05 13:23:09;;;;;;;19.45;10.82;;;22.70;53.50;;;;;;4971663;28;20555;-76
2022/09/05 13:25:38;;;;;;;16.83;9.10;;;22.70;53.50;;;;;;4973503;28;20046;-76
2022/09/05 13:28:07;;;;;;;16.35;9.15;;;22.70;53.80;;;;;;4971935;28;20542;-76
2022/09/05 13:30:47;;;;;;;16.45;9.98;;;22.70;53.40;;;;;;4972725;28;20042;-75
2022/09/05 13:33:22;;;;;;;;;;;22.70;53.30;;;;;;4972391;28;20039;-76
2022/09/05 13:36:05;;;;;;;17.77;9.60;;;22.70;53.70;;;;;;4968908;28;20456;-76
2022/09/05 13:38:46;;;;;;;18.60;10.20;;;22.70;53.80;;;;;;4972602;28;20027;-76
2022/09/05 13:41:26;;;;;;;17.95;8.63;;;22.70;54.00;;;;;;4972242;28;20031;-76
2022/09/05 13:43:53;;;;;;;14.50;8.50;;;22.70;53.50;;;;;;4970987;28;20043;-76
2022/09/05 13:49:35;;;;;;;14.38;7.70;;;22.70;53.50;;;;;;4927766;29;20054;-70
2022/09/05 13:52:29;;;;;;;11.43;6.38;;;22.70;53.20;;;;;;4933831;29;20452;-71
2022/09/05 13:55:02;;;;;;;14.35;5.90;;;22.70;53.00;;;;;;4937583;29;20039;-71
2022/09/05 13:57:33;;;;;;;11.20;6.40;;;22.70;53.20;;;;;;4961094;28;20035;-72
2022/09/05 14:03:24;;;;;;;12.82;5.85;;;22.80;53.20;;;;;;4970008;28;20035;-72
2022/09/05 14:05:59;;;;;;;10.40;5.60;;;22.70;52.90;;;;;;4967732;28;20575;-73
2022/09/05 14:08:49;;;;;;;17.35;6.55;;;22.70;52.90;;;;;;4971595;28;20034;-72